createdAt,value
2019-03-08T00:00:37.316Z,7.33
2019-03-08T00:05:43.288Z,7.32
2019-03-08T00:10:50.080Z,7.28
2019-03-08T00:15:56.458Z,7.33
2019-03-08T00:21:02.158Z,7.32
2019-03-08T00:26:09.026Z,7.36
2019-03-08T00:31:14.686Z,7.54
2019-03-08T00:36:20.449Z,7.63
2019-03-08T00:41:26.131Z,7.59
2019-03-08T00:46:31.785Z,7.57
2019-03-08T00:51:37.557Z,7.54
2019-03-08T00:56:43.063Z,7.50
2019-03-08T01:01:48.482Z,7.60
2019-03-08T01:06:54.041Z,7.61
2019-03-08T01:11:59.723Z,7.76
2019-03-08T01:17:05.416Z,7.80
2019-03-08T01:22:11.142Z,7.89
2019-03-08T01:27:16.336Z,7.94
2019-03-08T01:32:21.348Z,7.88
2019-03-08T01:37:27.779Z,7.89
2019-03-08T01:42:34.628Z,7.84
2019-03-08T01:47:39.899Z,7.85
2019-03-08T01:52:45.283Z,7.82
2019-03-08T01:57:50.705Z,7.83
2019-03-08T02:02:56.157Z,7.79
2019-03-08T02:08:01.283Z,7.76
2019-03-08T02:13:06.679Z,7.78
2019-03-08T02:18:12.335Z,7.73
2019-03-08T02:23:17.812Z,7.65
2019-03-08T02:28:23.365Z,7.68
2019-03-08T02:33:28.702Z,7.75
2019-03-08T02:38:34.167Z,7.58
2019-03-08T02:43:39.552Z,7.58
2019-03-08T02:48:44.826Z,7.56
2019-03-08T02:53:49.937Z,7.56
2019-03-08T02:58:55.232Z,7.54
2019-03-08T03:04:00.472Z,7.52
2019-03-08T03:09:06.870Z,7.54
2019-03-08T03:14:13.726Z,7.62
2019-03-08T03:19:18.855Z,7.49
2019-03-08T03:24:24.057Z,7.52
2019-03-08T03:29:29.624Z,7.49
2019-03-08T03:34:34.780Z,7.53
2019-03-08T03:39:39.938Z,7.55
2019-03-08T03:44:45.389Z,7.49
2019-03-08T03:49:50.959Z,7.47
2019-03-08T03:54:56.351Z,7.43
2019-03-08T04:00:01.574Z,7.46
2019-03-08T04:05:08.352Z,7.42
2019-03-08T04:10:15.555Z,7.35
2019-03-08T04:15:22.130Z,7.37
2019-03-08T04:20:27.489Z,7.38
2019-03-08T04:25:32.896Z,7.31
2019-03-08T04:30:38.833Z,7.25
2019-03-08T04:35:43.908Z,7.26
2019-03-08T04:40:48.947Z,7.22
2019-03-08T04:45:54.138Z,7.24
2019-03-08T04:50:59.218Z,7.19
2019-03-08T04:56:05.244Z,7.18
2019-03-08T05:01:10.507Z,7.12
2019-03-08T05:06:15.946Z,7.15
2019-03-08T05:11:22.423Z,7.21
2019-03-08T05:16:28.073Z,7.10
2019-03-08T05:21:33.449Z,7.16
2019-03-08T05:26:38.625Z,7.10
2019-03-08T05:31:43.975Z,7.04
2019-03-08T05:36:49.223Z,7.10
2019-03-08T05:41:54.583Z,7.13
2019-03-08T05:46:59.929Z,7.14
2019-03-08T05:52:05.509Z,7.12
2019-03-08T05:57:10.760Z,7.19
2019-03-08T06:02:16.321Z,7.17
2019-03-08T06:07:21.787Z,7.21
2019-03-08T06:12:28.683Z,7.31
2019-03-08T06:17:34.042Z,7.34
2019-03-08T06:22:39.396Z,7.36
2019-03-08T06:27:44.853Z,7.54
2019-03-08T06:32:50.118Z,7.54
2019-03-08T06:37:55.575Z,7.58
2019-03-08T06:43:00.836Z,7.61
2019-03-08T06:48:06.805Z,7.71
2019-03-08T06:53:12.165Z,7.74
2019-03-08T06:58:19.058Z,7.79
2019-03-08T07:03:24.319Z,7.84
2019-03-08T07:08:29.781Z,7.93
2019-03-08T07:13:34.839Z,8.02
2019-03-08T07:18:40.089Z,8.11
2019-03-08T07:23:46.974Z,8.23
2019-03-08T07:28:57.468Z,8.44
2019-03-08T07:34:11.088Z,8.58
2019-03-08T07:39:18.922Z,8.66
2019-03-08T07:44:42.002Z,8.85
2019-03-08T07:50:04.532Z,9.06
2019-03-08T07:55:12.742Z,9.33
2019-03-08T08:00:19.888Z,9.33
2019-03-08T08:05:26.923Z,9.56
2019-03-08T08:10:42.621Z,9.68
2019-03-08T08:16:01.517Z,9.62
2019-03-08T08:21:24.529Z,9.74
2019-03-08T08:26:49.865Z,9.87
2019-03-08T08:32:06.133Z,9.79
2019-03-08T08:37:12.978Z,9.99
2019-03-08T08:42:29.145Z,10.12
2019-03-08T08:47:35.977Z,10.21
2019-03-08T08:52:43.381Z,10.11
2019-03-08T08:58:06.269Z,9.82
2019-03-08T09:03:16.024Z,9.63
2019-03-08T09:08:31.319Z,9.61
2019-03-08T09:13:47.335Z,9.41
2019-03-08T09:19:12.656Z,9.02
2019-03-08T09:24:19.432Z,9.01
2019-03-08T09:29:26.238Z,9.03
2019-03-08T09:34:33.019Z,9.07
2019-03-08T09:39:48.831Z,9.08
2019-03-08T09:45:12.318Z,9.09
2019-03-08T09:50:35.668Z,9.03
2019-03-08T09:55:42.689Z,9.18
2019-03-08T10:00:55.424Z,9.18
2019-03-08T10:06:02.411Z,9.32
2019-03-08T10:11:15.453Z,9.66
2019-03-08T10:16:25.338Z,9.81
2019-03-08T10:21:32.222Z,10.00
2019-03-08T10:26:42.183Z,10.30
2019-03-08T10:31:49.386Z,10.36
2019-03-08T10:37:12.592Z,10.03
2019-03-08T10:42:34.357Z,9.62
2019-03-08T10:47:55.585Z,9.54
2019-03-08T10:52:55.770Z,9.73
2019-03-08T10:58:02.770Z,10.15
2019-03-08T11:03:27.904Z,10.35
2019-03-08T11:08:41.220Z,10.53
2019-03-08T11:13:48.238Z,10.53
2019-03-08T11:19:11.618Z,10.67
2019-03-08T11:24:21.823Z,10.87
2019-03-08T11:29:28.810Z,10.70
2019-03-08T11:34:51.934Z,10.60
2019-03-08T11:39:59.216Z,10.33
2019-03-08T11:45:24.794Z,10.30
2019-03-08T11:50:32.606Z,10.07
2019-03-08T11:55:39.702Z,9.99
2019-03-08T12:00:58.767Z,9.87
2019-03-08T12:06:06.547Z,9.75
2019-03-08T12:11:16.527Z,9.73
2019-03-08T12:16:40.373Z,9.95
2019-03-08T12:21:50.633Z,9.89
2019-03-08T12:26:57.527Z,9.90
2019-03-08T12:32:04.835Z,9.90
2019-03-08T12:37:20.429Z,10.03
2019-03-08T12:42:36.646Z,9.98
2019-03-08T12:47:46.353Z,9.94
2019-03-08T12:52:55.852Z,9.51
2019-03-08T12:58:02.758Z,9.00
2019-03-08T13:03:12.628Z,8.11
2019-03-08T13:08:19.859Z,7.54
2019-03-08T13:13:25.237Z,7.23
2019-03-08T13:18:30.441Z,7.21
2019-03-08T13:23:35.693Z,7.19
2019-03-08T13:28:41.061Z,7.40
2019-03-08T13:33:46.803Z,7.58
2019-03-08T13:38:52.088Z,7.75
2019-03-08T13:43:57.758Z,7.91
2019-03-08T13:49:03.106Z,7.93
2019-03-08T13:54:08.363Z,8.16
2019-03-08T13:59:13.967Z,8.23
2019-03-08T14:04:19.195Z,8.00
2019-03-08T14:09:24.298Z,7.85
2019-03-08T14:14:29.411Z,7.93
2019-03-08T14:19:34.542Z,7.82
2019-03-08T14:24:39.804Z,7.76
2019-03-08T14:29:45.160Z,7.85
2019-03-08T14:34:53.680Z,7.93
2019-03-08T14:39:58.739Z,7.99
2019-03-08T14:45:09.434Z,8.29
2019-03-08T14:50:15.084Z,8.18
2019-03-08T14:55:22.629Z,8.11
2019-03-08T15:00:29.003Z,8.13
2019-03-08T15:05:34.854Z,8.25
2019-03-08T15:10:43.543Z,7.95
2019-03-08T15:15:47.103Z,7.83
2019-03-08T15:20:54.859Z,7.79
2019-03-08T15:26:00.095Z,7.86
2019-03-08T15:31:05.693Z,7.80
2019-03-08T15:36:10.753Z,7.80
2019-03-08T15:41:17.797Z,7.70
2019-03-08T15:46:23.496Z,7.64
2019-03-08T15:51:29.230Z,7.58
2019-03-08T15:56:34.883Z,7.55
2019-03-08T16:01:40.117Z,7.51
2019-03-08T16:06:45.523Z,7.43
2019-03-08T16:11:51.178Z,7.34
2019-03-08T16:16:56.533Z,7.29
2019-03-08T16:22:02.711Z,7.22
2019-03-08T16:27:08.165Z,7.17
2019-03-08T16:32:17.986Z,7.15
2019-03-08T16:37:24.721Z,7.11
2019-03-08T16:42:31.470Z,7.09
2019-03-08T16:47:44.183Z,7.11
2019-03-08T16:52:50.844Z,7.12
2019-03-08T16:57:57.630Z,7.13
2019-03-08T17:03:10.840Z,7.08
2019-03-08T17:08:26.478Z,7.03
2019-03-08T17:13:49.963Z,7.04
2019-03-08T17:18:56.931Z,7.00
2019-03-08T17:24:16.067Z,6.93
2019-03-08T17:29:23.134Z,6.91
2019-03-08T17:34:39.138Z,6.89
2019-03-08T17:39:52.344Z,6.81
2019-03-08T17:45:26.442Z,6.81
2019-03-08T17:50:48.465Z,6.75
2019-03-08T17:55:58.225Z,6.70
2019-03-08T18:01:07.905Z,6.64
2019-03-08T18:06:31.067Z,6.59
2019-03-08T18:11:40.612Z,6.54
2019-03-08T18:16:47.618Z,6.52
2019-03-08T18:21:55.742Z,6.50
2019-03-08T18:27:08.583Z,6.49
2019-03-08T18:32:18.536Z,6.47
2019-03-08T18:37:40.704Z,6.45
2019-03-08T18:42:50.410Z,6.44
2019-03-08T18:47:57.459Z,6.44
2019-03-08T18:53:20.812Z,6.41
2019-03-08T18:58:44.234Z,6.40
2019-03-08T19:04:07.082Z,6.37
2019-03-08T19:09:20.226Z,6.32
2019-03-08T19:14:27.342Z,6.34
2019-03-08T19:19:47.026Z,6.26
2019-03-08T19:24:58.040Z,6.29
2019-03-08T19:30:13.929Z,6.27
2019-03-08T19:35:21.135Z,6.25
2019-03-08T19:40:28.924Z,6.27
2019-03-08T19:45:38.688Z,6.26
2019-03-08T19:50:52.446Z,6.29
2019-03-08T19:56:11.556Z,6.20
2019-03-08T20:01:30.846Z,6.22
2019-03-08T20:06:47.132Z,6.23
2019-03-08T20:11:54.364Z,6.17
2019-03-08T20:17:19.392Z,6.15
2019-03-08T20:22:32.398Z,6.15
2019-03-08T20:27:42.054Z,6.18
2019-03-08T20:33:01.573Z,6.16
2019-03-08T20:38:24.594Z,6.15
2019-03-08T20:43:31.947Z,6.11
2019-03-08T20:48:37.860Z,6.17
2019-03-08T20:53:43.608Z,6.10
2019-03-08T20:58:49.676Z,6.14
2019-03-08T21:03:55.655Z,6.10
2019-03-08T21:09:01.096Z,6.13
2019-03-08T21:14:07.975Z,6.18
2019-03-08T21:19:13.470Z,6.14
2019-03-08T21:24:18.804Z,6.17
2019-03-08T21:29:24.667Z,6.20
2019-03-08T21:34:30.223Z,6.27
2019-03-08T21:39:35.572Z,6.27
2019-03-08T21:44:41.332Z,6.26
2019-03-08T21:49:46.492Z,6.29
2019-03-08T21:54:51.981Z,6.26
2019-03-08T21:59:57.645Z,6.21
2019-03-08T22:05:03.296Z,6.18
2019-03-08T22:10:19.133Z,6.17
2019-03-08T22:15:24.461Z,6.20
2019-03-08T22:20:29.710Z,6.15
2019-03-08T22:25:35.200Z,6.06
2019-03-08T22:30:40.552Z,6.04
2019-03-08T22:35:45.769Z,5.98
2019-03-08T22:40:51.048Z,5.97
2019-03-08T22:45:56.508Z,5.96
2019-03-08T22:51:01.986Z,5.89
2019-03-08T22:56:07.231Z,5.86
2019-03-08T23:01:14.433Z,5.88
2019-03-08T23:06:21.313Z,5.81
2019-03-08T23:11:26.678Z,5.83
2019-03-08T23:16:32.039Z,5.80
2019-03-08T23:21:37.515Z,5.79
2019-03-08T23:26:44.457Z,5.76
2019-03-08T23:31:54.756Z,5.70
2019-03-08T23:37:00.051Z,5.77
2019-03-08T23:42:05.590Z,5.74
2019-03-08T23:47:10.741Z,5.76
2019-03-08T23:52:15.851Z,5.67
2019-03-08T23:57:21.087Z,5.68
